Augustaville, Pennsylvania
Current Conditions -  °F | °C
As of 1:13 PM on Sunday 25 Jan 2015 (Local Time) from KSEG Reporting Station
Overcast Overcast  
Wind Chill: 39°   Ceiling: 3000
Heat Index: 39°   Visibility: 10mi
Dew Point: 27°   Wind: 3mph
Humidity: 62%   Direction: 300°WNW
Pressure: 29.81"   Gusts: NA
Location:  40.83°N, 76.761°W
Report Text: KSEG 251813Z AUTO 30003KT 10SM OVC030 04/M03 A2981 RMK AO2 T00391028
Loading
Personal Weather Stations






























Interactive Weather Map New forecast layout! Learn more

10-Day Weather Forecast

Advertisements
Track Severe Weather on mobile